Terminal Aerodrome Forecast
Issued by NWS El Paso, TX

Home | Current Version | Previous Version | Text Only | Print | Product List | Glossary On
Versions: 1 2 3 4 5 6 7 8 9 10 11 12 13 14
537
FTUS44 KEPZ 221726
TAFELP
TAF
KELP 221726Z 2218/2318 28010G17KT P6SM FEW110 FEW250
     FM230300 31012KT P6SM SCT100=

USA.gov is the U.S. government's official web portal to all federal, state and local government web resources and services.